createdAt,value
2019-03-26T00:02:19.134Z,24.10
2019-03-26T00:07:23.283Z,24.40
2019-03-26T00:12:28.330Z,22.60
2019-03-26T00:17:33.275Z,22.32
2019-03-26T00:22:37.725Z,25.15
2019-03-26T00:27:43.251Z,22.42
2019-03-26T00:32:48.465Z,22.13
2019-03-26T00:37:52.597Z,22.93
2019-03-26T00:42:58.125Z,19.02
2019-03-26T00:48:02.468Z,20.88
2019-03-26T00:53:08.118Z,24.23
2019-03-26T00:58:13.328Z,22.48
2019-03-26T01:03:17.483Z,20.27
2019-03-26T01:08:22.279Z,23.87
2019-03-26T01:13:26.709Z,22.22
2019-03-26T01:18:31.427Z,20.40
2019-03-26T01:23:35.984Z,22.15
2019-03-26T01:28:44.792Z,16.73
2019-03-26T01:33:49.719Z,19.60
2019-03-26T01:38:53.844Z,17.32
2019-03-26T01:43:59.598Z,19.85
2019-03-26T01:49:04.393Z,16.40
2019-03-26T01:54:11.682Z,20.52
2019-03-26T01:59:20.100Z,18.67
2019-03-26T02:04:25.125Z,12.63
2019-03-26T02:09:30.825Z,17.40
2019-03-26T02:14:35.965Z,20.40
2019-03-26T02:19:40.890Z,19.10
2019-03-26T02:24:45.329Z,21.17
2019-03-26T02:29:51.222Z,22.60
2019-03-26T02:34:56.542Z,20.47
2019-03-26T02:40:00.774Z,20.52
2019-03-26T02:45:05.699Z,17.57
2019-03-26T02:50:10.484Z,33.53
2019-03-26T02:55:16.777Z,14.98
2019-03-26T03:00:21.885Z,16.10
2019-03-26T03:05:34.928Z,20.82
2019-03-26T03:10:34.890Z,23.32
2019-03-26T03:15:39.425Z,26.62
2019-03-26T03:21:03.430Z,26.25
2019-03-26T03:26:07.624Z,23.35
2019-03-26T03:31:12.645Z,20.82
2019-03-26T03:36:18.261Z,22.70
2019-03-26T03:41:22.968Z,21.17
2019-03-26T03:46:29.953Z,16.82
2019-03-26T03:51:37.930Z,22.32
2019-03-26T03:56:44.069Z,25.48
2019-03-26T04:01:48.241Z,24.10
2019-03-26T04:06:52.611Z,21.17
2019-03-26T04:11:57.326Z,20.92
2019-03-26T04:17:01.478Z,18.60
2019-03-26T04:22:06.381Z,21.93
2019-03-26T04:27:11.148Z,18.65
2019-03-26T04:32:15.280Z,9.70
2019-03-26T04:37:20.038Z,16.67
2019-03-26T04:42:24.180Z,16.12
2019-03-26T04:47:29.404Z,21.10
2019-03-26T04:52:34.413Z,25.95
2019-03-26T04:57:39.461Z,18.00
2019-03-26T05:02:44.468Z,19.02
2019-03-26T05:07:50.108Z,20.35
2019-03-26T05:12:54.297Z,17.30
2019-03-26T05:17:59.510Z,22.00
2019-03-26T05:23:03.728Z,19.23
2019-03-26T05:28:07.872Z,22.45
2019-03-26T05:33:12.888Z,12.60
2019-03-26T05:38:16.988Z,10.03
2019-03-26T05:43:21.124Z,7.42
2019-03-26T05:48:26.815Z,13.28
2019-03-26T05:53:31.895Z,17.90
2019-03-26T05:58:36.174Z,12.95
2019-03-26T06:03:40.729Z,16.65
2019-03-26T06:08:45.154Z,11.68
2019-03-26T06:13:49.287Z,7.92
2019-03-26T06:18:54.494Z,9.15
2019-03-26T06:23:59.044Z,13.93
2019-03-26T06:29:03.977Z,18.82
2019-03-26T06:34:10.637Z,8.15
2019-03-26T06:39:14.879Z,3.25
2019-03-26T06:44:19.057Z,13.05
2019-03-26T06:49:24.385Z,7.72
2019-03-26T06:54:29.001Z,14.85
2019-03-26T06:59:33.933Z,13.95
2019-03-26T07:04:45.236Z,14.55
2019-03-26T07:09:49.397Z,13.45
2019-03-26T07:14:54.367Z,14.80
2019-03-26T07:19:58.942Z,8.65
2019-03-26T07:25:06.086Z,23.30
2019-03-26T07:30:15.851Z,21.55
2019-03-26T07:35:21.459Z,12.40
2019-03-26T07:40:25.601Z,8.38
2019-03-26T07:45:49.818Z,22.93
2019-03-26T07:50:55.689Z,16.27
2019-03-26T07:56:00.597Z,12.95
2019-03-26T08:01:05.102Z,12.95
2019-03-26T08:06:10.071Z,15.50
2019-03-26T08:11:14.627Z,11.85
2019-03-26T08:16:19.114Z,8.25
2019-03-26T08:21:23.350Z,14.15
2019-03-26T08:26:27.425Z,9.13
2019-03-26T08:31:35.437Z,16.57
2019-03-26T08:36:40.453Z,19.87
2019-03-26T08:41:44.546Z,10.58
2019-03-26T08:46:48.902Z,14.10
2019-03-26T08:51:54.354Z,16.80
2019-03-26T08:56:58.462Z,5.15
2019-03-26T09:02:03.798Z,7.30
2019-03-26T09:07:10.925Z,12.88
2019-03-26T09:12:15.320Z,8.38
2019-03-26T09:17:20.088Z,11.48
2019-03-26T09:22:24.319Z,5.70
2019-03-26T09:27:28.699Z,11.00
2019-03-26T09:32:35.417Z,5.15
2019-03-26T09:37:39.626Z,6.05
2019-03-26T09:42:43.752Z,8.38
2019-03-26T09:47:48.101Z,12.37
2019-03-26T09:52:52.223Z,10.10
2019-03-26T09:57:57.135Z,9.53
2019-03-26T10:03:01.434Z,6.17
2019-03-26T10:08:05.691Z,7.90
2019-03-26T10:13:10.244Z,10.80
2019-03-26T10:18:16.190Z,10.13
2019-03-26T10:23:20.637Z,9.67
2019-03-26T10:28:26.092Z,10.30
2019-03-26T10:33:30.204Z,9.48
2019-03-26T10:38:34.334Z,10.78
2019-03-26T10:43:40.019Z,4.85
2019-03-26T10:48:44.439Z,9.98
2019-03-26T10:53:48.603Z,10.18
2019-03-26T10:58:52.798Z,7.97
2019-03-26T11:03:57.965Z,10.75
2019-03-26T11:09:03.158Z,9.00
2019-03-26T11:14:08.886Z,10.53
2019-03-26T11:19:13.185Z,7.15
2019-03-26T11:24:17.362Z,10.93
2019-03-26T11:29:23.311Z,4.78
2019-03-26T11:34:27.428Z,6.65
2019-03-26T11:39:33.558Z,5.80
2019-03-26T11:44:37.823Z,4.30
2019-03-26T11:49:42.775Z,3.75
2019-03-26T11:54:47.016Z,2.70
2019-03-26T11:59:51.240Z,2.10
2019-03-26T12:04:56.174Z,3.08
2019-03-26T12:10:00.497Z,1.72
2019-03-26T12:15:05.677Z,3.22
2019-03-26T12:20:09.895Z,3.58
2019-03-26T12:25:15.961Z,3.60
2019-03-26T12:30:33.381Z,3.25
2019-03-26T12:35:38.385Z,2.12
2019-03-26T12:40:44.241Z,2.12
2019-03-26T12:45:49.039Z,2.12
2019-03-26T12:50:53.251Z,1.98
2019-03-26T12:55:59.045Z,1.40
2019-03-26T13:01:04.289Z,1.50
2019-03-26T13:06:10.217Z,1.57
2019-03-26T13:11:16.902Z,1.75
2019-03-26T13:16:20.362Z,1.47
2019-03-26T13:21:24.903Z,1.72
2019-03-26T13:26:29.807Z,2.80
2019-03-26T13:31:34.125Z,2.00
2019-03-26T13:36:38.219Z,3.62
2019-03-26T13:41:43.207Z,2.92
2019-03-26T13:46:48.186Z,3.02
2019-03-26T13:51:52.378Z,1.82
2019-03-26T13:56:57.511Z,4.62
2019-03-26T14:02:01.646Z,4.00
2019-03-26T14:07:07.096Z,4.75
2019-03-26T14:12:12.091Z,4.15
2019-03-26T14:17:16.687Z,4.78
2019-03-26T14:22:20.800Z,5.87
2019-03-26T14:27:24.932Z,3.08
2019-03-26T14:32:29.053Z,4.40
2019-03-26T14:37:33.190Z,5.30
2019-03-26T14:42:39.193Z,3.87
2019-03-26T14:47:44.338Z,4.47
2019-03-26T14:52:48.581Z,5.17
2019-03-26T14:57:53.850Z,6.25
2019-03-26T15:02:57.953Z,4.12
2019-03-26T15:08:02.297Z,4.08
2019-03-26T15:13:06.447Z,2.62
2019-03-26T15:18:12.166Z,5.12
2019-03-26T15:23:16.375Z,4.60
2019-03-26T15:28:20.765Z,7.75
2019-03-26T15:33:25.625Z,9.38
2019-03-26T15:38:30.692Z,6.22
2019-03-26T15:43:35.752Z,9.73
2019-03-26T15:48:40.009Z,10.13
2019-03-26T15:53:44.129Z,10.78
2019-03-26T15:58:48.265Z,10.80
2019-03-26T16:03:52.531Z,12.93
2019-03-26T16:08:57.783Z,8.38
2019-03-26T16:14:01.923Z,9.20
2019-03-26T16:19:06.051Z,4.95
2019-03-26T16:24:10.846Z,4.72
2019-03-26T16:29:15.119Z,2.92
2019-03-26T16:34:20.099Z,3.17
2019-03-26T16:39:24.220Z,2.75
2019-03-26T16:44:28.348Z,1.95
2019-03-26T16:49:34.183Z,2.27
2019-03-26T16:54:38.323Z,1.82
2019-03-26T16:59:44.207Z,3.08
2019-03-26T17:04:48.351Z,2.02
2019-03-26T17:09:52.470Z,1.20
2019-03-26T17:14:56.602Z,0.78
2019-03-26T17:20:01.461Z,0.60
2019-03-26T17:25:06.902Z,1.50
2019-03-26T17:30:11.226Z,1.30
2019-03-26T17:35:15.407Z,1.60
2019-03-26T17:40:20.948Z,2.45
2019-03-26T17:45:25.195Z,2.17
2019-03-26T17:50:29.499Z,2.83
2019-03-26T17:55:34.493Z,2.30
2019-03-26T18:00:42.777Z,4.20
2019-03-26T18:05:46.996Z,4.47
2019-03-26T18:10:51.023Z,1.32
2019-03-26T18:15:55.180Z,2.27
2019-03-26T18:20:59.524Z,1.57
2019-03-26T18:26:06.092Z,3.10
2019-03-26T18:31:10.296Z,3.33
2019-03-26T18:36:14.417Z,3.83
2019-03-26T18:41:19.058Z,4.30
2019-03-26T18:46:23.247Z,3.35
2019-03-26T18:51:28.744Z,2.47
2019-03-26T18:56:33.141Z,4.10
2019-03-26T19:01:38.539Z,2.20
2019-03-26T19:06:42.884Z,2.85
2019-03-26T19:11:47.714Z,2.20
2019-03-26T19:16:51.738Z,5.10
2019-03-26T19:21:57.568Z,4.67
2019-03-26T19:27:04.241Z,4.42
2019-03-26T19:32:09.604Z,5.65
2019-03-26T19:37:13.835Z,3.22
2019-03-26T19:42:18.307Z,4.03
2019-03-26T19:47:22.299Z,6.42
2019-03-26T19:52:26.274Z,6.08
2019-03-26T19:57:30.556Z,5.45
2019-03-26T20:02:34.707Z,7.90
2019-03-26T20:07:39.103Z,7.10
2019-03-26T20:12:45.047Z,6.65
2019-03-26T20:17:50.138Z,4.58
2019-03-26T20:22:54.257Z,6.33
2019-03-26T20:27:58.434Z,6.03
2019-03-26T20:33:02.898Z,4.72
2019-03-26T20:38:07.323Z,6.08
2019-03-26T20:43:12.200Z,5.78
2019-03-26T20:48:17.176Z,4.20
2019-03-26T20:53:27.693Z,4.10
2019-03-26T20:58:32.260Z,5.92
2019-03-26T21:03:36.502Z,4.50
2019-03-26T21:08:41.025Z,5.42
2019-03-26T21:13:50.878Z,2.25
2019-03-26T21:18:51.970Z,4.95
2019-03-26T21:23:56.071Z,2.80
2019-03-26T21:29:00.200Z,4.08
2019-03-26T21:34:04.549Z,4.08
2019-03-26T21:39:09.033Z,4.37
2019-03-26T21:44:15.773Z,3.42
2019-03-26T21:49:20.744Z,3.77
2019-03-26T21:54:25.123Z,4.05
2019-03-26T21:59:29.526Z,1.85
2019-03-26T22:04:34.212Z,4.08
2019-03-26T22:09:38.387Z,1.67
2019-03-26T22:14:42.512Z,2.20
2019-03-26T22:19:46.650Z,4.17
2019-03-26T22:24:50.798Z,2.77
2019-03-26T22:29:55.063Z,3.70
2019-03-26T22:34:59.993Z,4.50
2019-03-26T22:40:07.336Z,3.77
2019-03-26T22:45:13.422Z,4.20
2019-03-26T22:50:18.264Z,4.58
2019-03-26T22:55:22.400Z,4.08
2019-03-26T23:00:29.033Z,4.03
2019-03-26T23:05:53.090Z,2.03
2019-03-26T23:11:10.175Z,4.12
2019-03-26T23:16:15.073Z,3.15
2019-03-26T23:21:20.123Z,4.00
2019-03-26T23:26:24.837Z,7.33
2019-03-26T23:31:29.332Z,9.63
2019-03-26T23:36:33.669Z,6.35
2019-03-26T23:41:39.787Z,5.15
2019-03-26T23:46:43.990Z,7.03
2019-03-26T23:51:48.455Z,4.97
2019-03-26T23:56:52.887Z,6.40
